Time;durP1;ratioP1;P1;durP2;ratioP2;P2;SDS_P1;SDS_P2;PMS_P1;PMS_P2;Temp;Humidity;BMP_temperature;BMP_pressure;BME280_temperature;BME280_humidity;BME280_pressure;Samples;Min_cycle;Max_cycle;Signal;HPM_P1;HPM_P2
2021/09/04 00:02:12;;;;;;;8.30;7.40;;;;;;;17.98;79.51;96432.78;5053722;28;20180;-60
2021/09/04 00:04:39;;;;;;;8.30;7.50;;;;;;;17.97;79.25;96431.97;5053417;28;20270;-64
2021/09/04 00:07:05;;;;;;;9.27;8.37;;;;;;;17.95;79.24;96431.47;5062778;28;20431;-60
2021/09/04 00:09:31;;;;;;;8.40;7.60;;;;;;;17.91;79.50;96433.09;5073624;28;20404;-60
2021/09/04 00:11:56;;;;;;;8.20;7.50;;;;;;;17.90;79.56;96436.78;5073649;28;20488;-64
2021/09/04 00:14:22;;;;;;;8.73;7.93;;;;;;;17.90;79.65;96433.34;5073234;28;20267;-59
2021/09/04 00:16:47;;;;;;;8.27;7.47;;;;;;;17.83;80.19;96436.28;5073676;28;20175;-64
2021/09/04 00:19:12;;;;;;;8.50;7.70;;;;;;;17.83;80.21;96428.31;5073472;28;20167;-64
2021/09/04 00:21:38;;;;;;;8.87;7.97;;;;;;;17.85;80.03;96423.50;5053941;28;20661;-60
2021/09/04 00:24:04;;;;;;;8.37;7.57;;;;;;;17.84;79.93;96427.25;5052930;28;20651;-60
2021/09/04 00:26:29;;;;;;;10.13;7.67;;;;;;;17.82;80.38;96423.25;5053354;28;20237;-64
2021/09/04 00:28:54;;;;;;;8.77;7.87;;;;;;;17.81;80.08;96427.78;5055564;28;20544;-64
2021/09/04 00:31:20;;;;;;;9.00;8.10;;;;;;;17.82;79.82;96424.06;5073560;28;20174;-60
2021/09/04 00:33:45;;;;;;;9.23;8.40;;;;;;;17.79;79.71;96421.91;5073056;28;20216;-65
2021/09/04 00:36:10;;;;;;;7.93;7.10;;;;;;;17.70;79.93;96423.53;5072493;28;20209;-64
2021/09/04 00:38:36;;;;;;;7.43;6.77;;;;;;;17.72;80.08;96423.28;5064322;28;20719;-59
2021/09/04 00:41:01;;;;;;;8.60;7.80;;;;;;;17.70;79.75;96425.41;5053232;28;20171;-59
2021/09/04 00:43:27;;;;;;;9.63;8.73;;;;;;;17.70;80.17;96420.09;5052839;28;20171;-64
2021/09/04 00:45:52;;;;;;;8.23;7.53;;;;;;;17.63;80.43;96420.34;5053064;28;20226;-64
2021/09/04 00:48:17;;;;;;;8.50;7.70;;;;;;;17.64;80.52;96423.81;5053077;28;20650;-59
2021/09/04 00:50:43;;;;;;;9.93;8.83;;;;;;;17.64;80.39;96426.47;5064103;28;20179;-60
2021/09/04 00:53:09;;;;;;;9.70;8.50;;;;;;;17.61;80.89;96421.72;5057335;28;20233;-64
2021/09/04 00:55:34;;;;;;;8.87;7.83;;;;;;;17.63;80.46;96422.25;5055655;28;20195;-64
2021/09/04 00:58:00;;;;;;;8.57;7.77;;;;;;;17.64;80.18;96421.16;5073407;28;20767;-64
2021/09/04 01:00:25;;;;;;;9.53;8.53;;;;;;;17.62;80.08;96420.63;5073224;28;20512;-64
2021/09/04 01:02:51;;;;;;;8.43;7.57;;;;;;;17.59;79.89;96419.31;5072884;28;20167;-64
2021/09/04 01:05:17;;;;;;;9.37;7.73;;;;;;;17.54;80.29;96421.97;5073035;28;20734;-60
2021/09/04 01:07:43;;;;;;;8.33;7.63;;;;;;;17.54;79.99;96421.19;5071993;28;20210;-64
2021/09/04 01:10:11;;;;;;;8.43;7.63;;;;;;;17.55;80.09;96422.78;5073067;28;20401;-59
2021/09/04 01:12:37;;;;;;;8.63;7.83;;;;;;;17.54;79.93;96421.19;5072791;28;20174;-64
2021/09/04 01:15:05;;;;;;;9.27;8.20;;;;;;;17.52;79.79;96413.47;5073151;28;20571;-59
2021/09/04 01:17:32;;;;;;;9.10;7.80;;;;;;;17.48;80.10;96407.88;5072961;28;20459;-59
2021/09/04 01:19:58;;;;;;;9.43;7.37;;;;;;;17.46;80.23;96412.63;5067837;28;20511;-60
2021/09/04 01:22:23;;;;;;;9.33;8.43;;;;;;;17.47;80.12;96416.13;5052849;28;20488;-60
2021/09/04 01:24:51;;;;;;;8.70;7.90;;;;;;;17.46;79.94;96409.22;5052278;28;20199;-59
2021/09/04 01:27:18;;;;;;;9.00;8.20;;;;;;;17.42;80.08;96402.84;5052669;28;20179;-59
2021/09/04 01:29:44;;;;;;;8.70;7.80;;;;;;;17.39;80.27;96400.72;5052627;28;20414;-64
2021/09/04 01:32:09;;;;;;;9.07;7.83;;;;;;;17.37;79.98;96400.19;5052945;28;20406;-59
2021/09/04 01:34:35;;;;;;;9.30;7.77;;;;;;;17.35;80.04;96403.13;5055613;28;20511;-59
2021/09/04 01:37:00;;;;;;;11.27;7.90;;;;;;;17.34;80.06;96401.50;5059425;28;20638;-64
2021/09/04 01:39:26;;;;;;;8.50;7.70;;;;;;;17.35;80.13;96399.66;5052831;28;20160;-64
2021/09/04 01:41:51;;;;;;;8.10;7.30;;;;;;;17.30;80.45;96402.31;5053048;28;20207;-64
2021/09/04 01:44:16;;;;;;;8.83;7.93;;;;;;;17.26;80.70;96395.94;5052147;28;20167;-59
2021/09/04 01:46:42;;;;;;;8.50;7.60;;;;;;;17.27;80.38;96402.84;5052882;28;20168;-64
2021/09/04 01:49:07;;;;;;;9.20;8.30;;;;;;;17.24;80.63;96400.72;5052444;28;20194;-60
2021/09/04 01:51:33;;;;;;;9.13;8.23;;;;;;;17.25;80.69;96396.97;5062075;28;20225;-62
2021/09/04 01:53:59;;;;;;;9.53;7.40;;;;;;;17.25;80.33;96394.31;5075326;28;20258;-64
2021/09/04 01:56:24;;;;;;;8.00;7.20;;;;;;;17.20;80.62;96395.16;5076033;28;20210;-59
2021/09/04 01:58:50;;;;;;;8.20;7.50;;;;;;;17.23;80.45;96391.94;5074770;28;20719;-64
2021/09/04 02:01:15;;;;;;;8.83;7.77;;;;;;;17.23;80.05;96385.81;5076207;28;20171;-60
2021/09/04 02:03:40;;;;;;;10.70;7.60;;;;;;;17.21;80.19;96387.97;5073934;28;20175;-60
2021/09/04 02:06:06;;;;;;;8.00;7.30;;;;;;;17.18;80.34;96380.53;5075896;28;20595;-64
2021/09/04 02:08:32;;;;;;;8.30;7.50;;;;;;;17.12;80.37;96389.56;5076397;28;20198;-59
2021/09/04 02:10:58;;;;;;;8.97;8.17;;;;;;;17.10;80.65;96387.16;5076122;28;20171;-59
2021/09/04 02:13:24;;;;;;;8.63;7.87;;;;;;;17.11;80.73;96382.66;5075620;28;20410;-59
2021/09/04 02:15:49;;;;;;;8.80;8.00;;;;;;;17.08;80.70;96386.66;5075705;28;20274;-59
2021/09/04 02:18:15;;;;;;;9.90;8.90;;;;;;;17.10;80.36;96384.50;5073025;28;20189;-64
2021/09/04 02:20:40;;;;;;;8.73;7.80;;;;;;;17.07;80.51;96386.91;5055712;28;20592;-59
2021/09/04 02:23:05;;;;;;;8.53;7.63;;;;;;;16.98;80.76;96385.81;5055352;28;20171;-64
2021/09/04 02:25:31;;;;;;;8.20;7.40;;;;;;;17.03;80.53;96391.94;5055436;28;20202;-59
2021/09/04 02:27:57;;;;;;;8.63;7.63;;;;;;;17.02;80.20;96392.22;5055760;28;20635;-64
2021/09/04 02:30:22;;;;;;;8.77;7.23;;;;;;;16.94;81.16;96382.13;5055514;28;20172;-59
2021/09/04 02:32:48;;;;;;;9.10;7.50;;;;;;;16.97;80.58;96381.59;5055996;28;20459;-64
2021/09/04 02:35:13;;;;;;;8.23;7.43;;;;;;;16.94;80.78;96376.81;5075622;28;20191;-64
2021/09/04 02:37:38;;;;;;;8.50;7.70;;;;;;;16.92;80.79;96376.28;5075791;28;20518;-59
2021/09/04 02:40:05;;;;;;;8.27;7.10;;;;;;;16.90;80.80;96373.91;5075489;28;20190;-64
2021/09/04 02:42:32;;;;;;;8.30;7.60;;;;;;;16.92;80.56;96379.72;5075297;28;20253;-59
2021/09/04 02:44:57;;;;;;;8.00;7.30;;;;;;;16.87;80.81;96384.22;5074818;28;20944;-59
2021/09/04 02:47:22;;;;;;;8.23;7.53;;;;;;;16.87;80.76;96376.25;5075150;28;20500;-60
2021/09/04 02:49:47;;;;;;;8.27;7.57;;;;;;;16.86;81.13;96377.34;5055383;28;20224;-60
2021/09/04 02:52:13;;;;;;;8.37;7.57;;;;;;;16.87;80.73;96379.72;5055120;28;20538;-64
2021/09/04 02:54:38;;;;;;;8.20;7.40;;;;;;;16.81;81.02;96374.69;5054695;28;20195;-59
2021/09/04 02:57:04;;;;;;;8.20;7.50;;;;;;;16.79;81.18;96376.81;5055185;28;20178;-59
2021/09/04 02:59:29;;;;;;;8.20;7.40;;;;;;;16.80;81.01;96379.19;5055101;28;20178;-59
2021/09/04 03:01:54;;;;;;;7.90;7.20;;;;;;;16.78;81.01;96375.19;5054500;28;20511;-60
2021/09/04 03:04:20;;;;;;;8.60;7.80;;;;;;;16.76;80.98;96372.81;5059909;28;20214;-59
2021/09/04 03:06:45;;;;;;;10.10;7.07;;;;;;;16.76;81.17;96367.50;5075338;28;20175;-59
2021/09/04 03:09:10;;;;;;;7.47;6.77;;;;;;;16.77;80.97;96377.06;5074805;28;20225;-64
2021/09/04 03:11:36;;;;;;;8.10;7.40;;;;;;;16.77;80.93;96373.63;5074915;28;20171;-59
2021/09/04 03:14:01;;;;;;;6.97;6.27;;;;;;;16.75;81.02;96373.06;5074358;28;20618;-59
2021/09/04 03:16:28;;;;;;;7.50;6.80;;;;;;;16.76;81.11;96377.34;5074741;28;20198;-64
2021/09/04 03:18:54;;;;;;;11.23;7.00;;;;;;;16.77;81.15;96368.31;5063233;28;20172;-64
2021/09/04 03:21:19;;;;;;;8.77;7.43;;;;;;;16.74;81.19;96359.00;5054526;28;20422;-64
2021/09/04 03:23:44;;;;;;;8.13;7.33;;;;;;;16.70;81.51;96359.81;5054436;28;20259;-64
2021/09/04 03:26:10;;;;;;;7.87;6.93;;;;;;;16.69;81.39;96356.34;5054388;28;20207;-64
2021/09/04 03:28:35;;;;;;;8.43;7.70;;;;;;;16.70;81.30;96357.16;5066224;28;20205;-59
2021/09/04 03:31:01;;;;;;;7.63;7.03;;;;;;;16.70;81.22;96357.16;5054500;28;20185;-64
2021/09/04 03:33:26;;;;;;;7.63;6.93;;;;;;;16.68;81.18;96356.63;5054098;28;20174;-59
2021/09/04 03:35:51;;;;;;;7.90;7.13;;;;;;;16.68;81.57;96364.59;5054244;28;20581;-64
2021/09/04 03:38:17;;;;;;;9.33;7.33;;;;;;;16.70;81.05;96365.13;5054276;28;20202;-59
2021/09/04 03:40:43;;;;;;;6.83;6.23;;;;;;;16.62;80.77;96355.00;5054192;28;20258;-59
2021/09/04 03:43:08;;;;;;;8.37;7.57;;;;;;;16.61;81.21;96358.75;5056218;28;20532;-59
2021/09/04 03:45:34;;;;;;;6.83;6.23;;;;;;;16.61;81.10;96356.09;5054254;28;20233;-59
2021/09/04 03:48:00;;;;;;;7.13;6.50;;;;;;;16.62;81.10;96361.13;5053873;28;20203;-64
2021/09/04 03:50:25;;;;;;;7.97;6.93;;;;;;;16.64;80.95;96359.00;5054076;28;20471;-64
2021/09/04 03:52:50;;;;;;;8.07;6.90;;;;;;;16.65;80.92;96362.47;5053674;28;20168;-64
2021/09/04 03:55:16;;;;;;;7.40;6.70;;;;;;;16.61;80.98;96359.53;5053864;28;20716;-64
2021/09/04 03:57:41;;;;;;;7.20;6.50;;;;;;;16.60;81.01;96359.78;5063427;28;20209;-64
2021/09/04 04:00:07;;;;;;;7.30;6.60;;;;;;;16.60;81.22;96359.78;5073908;28;20195;-59
2021/09/04 04:02:33;;;;;;;8.00;7.20;;;;;;;16.56;80.89;96356.84;5073716;28;20245;-59
2021/09/04 04:04:58;;;;;;;7.30;6.70;;;;;;;16.55;81.03;96365.09;5073400;28;20548;-59
2021/09/04 04:07:23;;;;;;;7.47;6.80;;;;;;;16.51;81.33;96366.66;5073772;28;20220;-59
2021/09/04 04:09:49;;;;;;;7.57;6.87;;;;;;;16.54;81.04;96358.19;5073812;28;20258;-64
2021/09/04 04:12:14;;;;;;;7.10;6.40;;;;;;;16.51;81.09;96361.34;5065265;28;20258;-64
2021/09/04 04:14:40;;;;;;;7.60;6.90;;;;;;;16.49;81.17;96358.97;5052486;28;20217;-64
2021/09/04 04:17:05;;;;;;;7.87;7.07;;;;;;;16.46;81.15;96352.31;5053492;28;20630;-64
2021/09/04 04:19:31;;;;;;;7.17;6.50;;;;;;;16.44;81.25;96356.28;5053572;28;20171;-59
2021/09/04 04:21:57;;;;;;;7.40;6.70;;;;;;;16.41;81.20;96354.16;5053627;28;20252;-59
2021/09/04 04:24:22;;;;;;;6.77;6.17;;;;;;;16.42;80.87;96353.91;5052949;28;20453;-59
2021/09/04 04:26:47;;;;;;;7.60;6.80;;;;;;;16.41;80.75;96349.63;5059916;28;20205;-64
2021/09/04 04:29:13;;;;;;;6.80;6.20;;;;;;;16.43;80.44;96360.78;5062596;28;20717;-59
2021/09/04 04:31:39;;;;;;;7.30;6.70;;;;;;;16.38;80.54;96359.97;5053566;28;20171;-60
2021/09/04 04:34:05;;;;;;;7.00;6.40;;;;;;;16.39;80.38;96357.09;5053012;28;20530;-59
2021/09/04 04:36:31;;;;;;;6.30;5.80;;;;;;;16.36;80.20;96357.59;5053866;28;20445;-59
2021/09/04 04:38:56;;;;;;;7.20;6.50;;;;;;;16.32;80.43;96356.50;5053464;28;20175;-64
2021/09/04 04:41:21;;;;;;;7.50;6.70;;;;;;;16.33;80.80;96359.97;5053923;28;20163;-59
2021/09/04 04:43:47;;;;;;;8.10;6.43;;;;;;;16.30;80.83;96356.00;5073014;28;20170;-64
2021/09/04 04:46:12;;;;;;;6.70;6.20;;;;;;;16.27;81.00;96359.16;5073133;28;20190;-64
2021/09/04 04:48:38;;;;;;;9.67;7.53;;;;;;;16.28;80.75;96360.75;5073296;28;20229;-64
2021/09/04 04:51:04;;;;;;;7.40;6.70;;;;;;;16.27;80.76;96361.81;5073228;28;20198;-64
2021/09/04 04:53:29;;;;;;;7.40;6.70;;;;;;;16.28;80.80;96360.75;5073168;28;20209;-59
2021/09/04 04:55:55;;;;;;;7.63;6.93;;;;;;;16.30;80.54;96363.97;5073111;28;20460;-59
2021/09/04 04:58:20;;;;;;;7.20;6.30;;;;;;;16.30;80.26;96360.50;5054232;28;20210;-64
2021/09/04 05:00:45;;;;;;;7.70;6.90;;;;;;;16.28;80.37;96362.63;5052970;28;20225;-60
2021/09/04 05:03:11;;;;;;;7.87;7.17;;;;;;;16.24;80.66;96359.69;5052730;28;20168;-64
2021/09/04 05:05:37;;;;;;;7.33;6.63;;;;;;;16.25;80.56;96363.16;5053069;28;20256;-59
2021/09/04 05:08:03;;;;;;;8.00;7.30;;;;;;;16.27;80.62;96361.81;5053180;28;20196;-64
2021/09/04 05:10:28;;;;;;;8.80;8.00;;;;;;;16.23;80.64;96367.91;5053302;28;20213;-59
2021/09/04 05:12:54;;;;;;;14.90;8.50;;;;;;;16.22;80.85;96367.09;5069702;28;20429;-59
2021/09/04 05:15:19;;;;;;;10.00;7.97;;;;;;;16.24;80.81;96364.19;5072894;28;20202;-59
2021/09/04 05:17:44;;;;;;;8.87;8.07;;;;;;;16.22;81.02;96367.09;5072878;28;20212;-59
2021/09/04 05:20:10;;;;;;;10.53;8.10;;;;;;;16.20;81.55;96368.41;5072936;28;20537;-64
2021/09/04 05:22:36;;;;;;;10.13;9.00;;;;;;;16.18;81.63;96371.31;5072516;28;20189;-61
2021/09/04 05:25:01;;;;;;;11.57;9.23;;;;;;;16.17;81.93;96361.78;5073382;28;20198;-59
2021/09/04 05:27:26;;;;;;;9.90;8.70;;;;;;;16.18;82.42;96370.53;5061239;28;20236;-59
2021/09/04 05:29:52;;;;;;;9.47;8.47;;;;;;;16.16;82.78;96368.13;5056581;28;20175;-59
2021/09/04 05:32:23;;;;;;;9.13;8.23;;;;;;;16.16;83.12;96370.00;5056536;28;20170;-64
2021/09/04 05:34:50;;;;;;;8.87;8.07;;;;;;;16.21;83.37;96376.13;5054899;28;20278;-64
2021/09/04 05:37:15;;;;;;;9.80;8.83;;;;;;;16.29;83.62;96366.84;5056600;28;20488;-64
2021/09/04 05:39:40;;;;;;;9.90;8.93;;;;;;;16.30;83.64;96371.91;5056670;28;20548;-64
2021/09/04 05:42:06;;;;;;;9.63;8.63;;;;;;;16.31;83.80;96370.84;5061858;28;20176;-64
2021/09/04 05:44:31;;;;;;;9.73;8.90;;;;;;;16.34;84.08;96364.22;5063701;28;20641;-64
2021/09/04 05:46:56;;;;;;;9.83;8.83;;;;;;;16.38;84.24;96373.22;5056329;28;20171;-64
2021/09/04 05:49:22;;;;;;;10.10;8.70;;;;;;;16.39;84.39;96378.31;5056261;28;20210;-59
2021/09/04 05:51:47;;;;;;;9.73;8.73;;;;;;;16.38;85.15;96375.88;5056260;28;20167;-59
2021/09/04 05:54:13;;;;;;;9.83;9.03;;;;;;;16.46;85.53;96367.44;5055846;28;20246;-59
2021/09/04 05:56:38;;;;;;;10.47;9.33;;;;;;;16.50;85.44;96375.69;5056164;28;20167;-59
2021/09/04 05:59:03;;;;;;;11.90;10.70;;;;;;;16.57;85.47;96376.22;5065669;28;20541;-59
2021/09/04 06:01:29;;;;;;;10.63;9.63;;;;;;;16.63;85.87;96378.63;5076143;28;20528;-59
2021/09/04 06:03:55;;;;;;;10.67;9.57;;;;;;;16.69;85.84;96372.28;5075765;28;20195;-64
2021/09/04 06:06:21;;;;;;;12.37;10.10;;;;;;;16.74;86.31;96368.84;5075929;28;20751;-59
2021/09/04 06:08:46;;;;;;;10.40;9.30;;;;;;;16.77;86.31;96360.34;5075945;28;20543;-59
2021/09/04 06:11:11;;;;;;;9.97;8.97;;;;;;;16.78;86.78;96364.56;5076001;28;20178;-59
2021/09/04 06:13:37;;;;;;;10.90;9.90;;;;;;;16.80;87.10;96367.78;5067229;28;20597;-60
2021/09/04 06:16:02;;;;;;;10.40;9.40;;;;;;;16.91;86.78;96372.84;5055761;28;20198;-64
2021/09/04 06:18:28;;;;;;;12.60;10.47;;;;;;;16.98;86.79;96370.72;5056073;28;20171;-64
2021/09/04 06:20:53;;;;;;;10.67;9.67;;;;;;;17.02;86.96;96369.13;5055848;28;20225;-59
2021/09/04 06:23:18;;;;;;;10.83;9.80;;;;;;;17.08;87.23;96376.03;5055352;28;20171;-64
2021/09/04 06:25:44;;;;;;;10.20;9.20;;;;;;;17.11;87.25;96367.53;5055624;28;20206;-59
2021/09/04 06:28:09;;;;;;;10.97;9.97;;;;;;;17.15;87.40;96371.25;5061783;28;20649;-64
2021/09/04 06:30:34;;;;;;;11.87;10.67;;;;;;;17.21;87.62;96372.81;5069404;28;20175;-60
2021/09/04 06:33:00;;;;;;;11.30;10.20;;;;;;;17.24;87.94;96380.28;5075211;28;20182;-59
2021/09/04 06:35:25;;;;;;;9.93;9.03;;;;;;;17.30;88.00;96378.41;5075393;28;20191;-59
2021/09/04 06:37:50;;;;;;;11.60;10.50;;;;;;;17.38;88.08;96373.34;5074567;28;20185;-59
2021/09/04 06:40:16;;;;;;;11.17;10.10;;;;;;;17.42;88.40;96381.56;5075378;28;20253;-64
2021/09/04 06:42:41;;;;;;;11.07;9.97;;;;;;;17.48;88.48;96379.75;5074365;28;20174;-60
2021/09/04 06:45:07;;;;;;;12.50;11.20;;;;;;;17.56;88.56;96376.53;5065037;28;20207;-64
2021/09/04 06:47:32;;;;;;;11.37;10.30;;;;;;;17.59;88.74;96376.81;5067875;28;20183;-60
2021/09/04 06:49:58;;;;;;;11.07;10.07;;;;;;;17.65;88.99;96380.22;5075453;28;20177;-64
2021/09/04 06:52:23;;;;;;;11.40;9.67;;;;;;;17.73;88.81;96377.84;5075131;28;20201;-64
2021/09/04 06:54:48;;;;;;;11.10;10.00;;;;;;;17.80;88.75;96375.69;5074743;28;20193;-64
2021/09/04 06:57:14;;;;;;;10.37;9.37;;;;;;;17.82;89.13;96381.53;5075154;28;20253;-64
2021/09/04 06:59:39;;;;;;;11.07;10.07;;;;;;;17.90;89.09;96378.28;5075171;28;20182;-64
2021/09/04 07:02:05;;;;;;;11.07;10.07;;;;;;;17.95;88.93;96375.66;5063775;28;20229;-66
2021/09/04 07:04:30;;;;;;;10.67;9.70;;;;;;;18.01;89.03;96373.75;5054608;28;20658;-59
2021/09/04 07:07:03;;;;;;;10.37;9.23;;;;;;;18.07;88.95;96370.81;5074991;28;20205;-58
2021/09/04 07:09:28;;;;;;;11.70;10.50;;;;;;;18.13;89.00;96374.25;5074909;28;20226;-59
2021/09/04 07:11:56;;;;;;;12.00;10.10;;;;;;;18.21;89.41;96387.75;5074940;28;20463;-66
2021/09/04 07:14:21;;;;;;;11.30;10.20;;;;;;;18.25;89.20;96386.16;5074243;28;20181;-59
2021/09/04 07:16:46;;;;;;;11.00;10.00;;;;;;;18.33;89.02;96380.25;5074661;28;20401;-65
2021/09/04 07:19:13;;;;;;;11.60;10.40;;;;;;;18.39;89.03;96378.34;5074439;28;20683;-62
2021/09/04 07:21:39;;;;;;;12.67;10.57;;;;;;;18.45;88.91;96386.09;5074114;28;20193;-65
2021/09/04 07:24:04;;;;;;;10.67;9.77;;;;;;;18.53;88.12;96386.56;5074005;28;20896;-66
2021/09/04 07:26:29;;;;;;;10.80;9.03;;;;;;;18.60;87.49;96385.22;5074287;28;20271;-65
2021/09/04 07:28:55;;;;;;;10.40;8.73;;;;;;;18.63;87.31;96397.16;5065131;28;20195;-65
2021/09/04 07:31:20;;;;;;;13.20;9.43;;;;;;;18.73;86.54;96389.94;5073568;28;20197;-67
2021/09/04 07:33:45;;;;;;;11.30;10.17;;;;;;;18.81;86.39;96383.19;5060974;28;20258;-70
2021/09/04 07:36:11;;;;;;;12.30;10.10;;;;;;;18.88;85.62;96387.13;5074166;28;20198;-69
2021/09/04 07:38:36;;;;;;;9.97;8.97;;;;;;;19.00;85.49;96394.78;5063579;28;20182;-57
2021/09/04 07:41:02;;;;;;;11.43;10.33;;;;;;;19.07;85.52;96397.94;5054067;28;20180;-64
2021/09/04 07:43:27;;;;;;;11.10;8.60;;;;;;;19.18;85.34;96404.78;5056483;28;20179;-64
2021/09/04 07:45:52;;;;;;;10.30;9.40;;;;;;;19.24;85.45;96396.44;5066920;28;20194;-57
2021/09/04 07:48:18;;;;;;;11.47;9.87;;;;;;;19.31;85.72;96396.19;5075410;28;20278;-60
2021/09/04 07:50:43;;;;;;;10.10;9.10;;;;;;;19.39;85.83;96408.88;5061627;28;20176;-57
2021/09/04 07:53:08;;;;;;;11.10;10.00;;;;;;;19.44;85.53;96398.97;5068496;28;20182;-57
2021/09/04 07:55:34;;;;;;;10.87;9.87;;;;;;;19.38;84.94;96393.97;5073655;28;20281;-67
2021/09/04 07:57:59;;;;;;;10.07;9.07;;;;;;;19.52;84.24;96396.78;5074131;28;20174;-66
2021/09/04 08:00:26;;;;;;;10.80;9.80;;;;;;;19.52;81.89;96394.91;5073782;28;20527;-60
2021/09/04 08:02:52;;;;;;;11.43;10.27;;;;;;;19.53;80.85;96401.06;5064371;28;20701;-61
2021/09/04 08:05:17;;;;;;;11.20;9.10;;;;;;;19.67;81.36;96401.97;5068083;28;20540;-68
2021/09/04 08:07:43;;;;;;;9.70;8.80;;;;;;;19.81;81.58;96408.22;5073645;28;20444;-66
2021/09/04 08:10:08;;;;;;;8.40;7.60;;;;;;;19.93;82.03;96403.31;5073715;28;20173;-58
2021/09/04 08:12:34;;;;;;;12.73;9.27;;;;;;;19.74;78.03;96405.91;5073805;28;20171;-58
2021/09/04 08:14:59;;;;;;;8.97;8.07;;;;;;;19.99;77.69;96410.97;5073287;28;20664;-67
2021/09/04 08:17:24;;;;;;;8.90;8.00;;;;;;;20.12;78.40;96401.50;5071959;28;20207;-65
2021/09/04 08:19:50;;;;;;;8.13;7.43;;;;;;;20.24;78.84;96410.72;5056860;28;20187;-65
2021/09/04 08:22:15;;;;;;;8.27;7.47;;;;;;;20.33;78.82;96411.66;5050094;28;20171;-62
2021/09/04 08:24:41;;;;;;;7.97;7.27;;;;;;;20.40;78.48;96411.31;5049471;28;20230;-65
2021/09/04 08:27:06;;;;;;;8.80;8.00;;;;;;;20.47;77.81;96417.88;5049950;28;20210;-65
2021/09/04 08:29:33;;;;;;;10.53;8.93;;;;;;;20.53;75.99;96415.19;5057222;28;20248;-63
2021/09/04 08:31:59;;;;;;;9.03;8.13;;;;;;;20.60;76.53;96419.06;5069956;28;20413;-63
2021/09/04 08:34:24;;;;;;;9.63;7.77;;;;;;;20.65;77.04;96427.03;5068969;28;20228;-65
2021/09/04 08:36:51;;;;;;;7.17;6.57;;;;;;;20.71;76.72;96415.19;5070070;28;20181;-65
2021/09/04 08:39:16;;;;;;;11.93;9.27;;;;;;;20.72;76.00;96424.78;5059102;28;20190;-62
2021/09/04 08:41:41;;;;;;;11.00;8.37;;;;;;;20.85;75.43;96420.59;5049147;28;20410;-65
2021/09/04 08:44:07;;;;;;;7.97;7.00;;;;;;;20.89;74.63;96417.06;5049382;28;20171;-61
2021/09/04 08:46:35;;;;;;;7.97;6.50;;;;;;;20.96;74.61;96422.06;5049734;28;20175;-65
2021/09/04 08:49:02;;;;;;;6.57;5.97;;;;;;;21.05;74.45;96426.47;5061427;28;20217;-65
2021/09/04 08:51:28;;;;;;;12.10;8.10;;;;;;;21.13;74.21;96428.50;5069758;28;21091;-63
2021/09/04 08:53:54;;;;;;;7.27;6.67;;;;;;;21.19;74.07;96426.53;5069107;28;20939;-61
2021/09/04 08:56:19;;;;;;;6.73;6.13;;;;;;;21.27;73.78;96431.25;5069707;28;20950;-63
2021/09/04 08:58:45;;;;;;;8.27;7.43;;;;;;;21.33;72.54;96427.38;5069714;28;20630;-63
2021/09/04 09:01:25;;;;;;;7.67;6.87;;;;;;;21.41;72.66;96429.41;5060669;28;20262;-60
2021/09/04 09:03:52;;;;;;;7.17;6.37;;;;;;;21.47;72.57;96429.03;5053621;28;20187;-64
2021/09/04 09:06:26;;;;;;;7.50;6.80;;;;;;;21.58;72.33;96436.88;5071054;28;20449;-61
2021/09/04 09:08:52;;;;;;;6.73;6.03;;;;;;;21.66;72.18;96430.84;5075680;28;20475;-66
2021/09/04 09:11:18;;;;;;;9.20;6.50;;;;;;;21.72;72.95;96432.38;5076915;28;20409;-65
2021/09/04 09:13:49;;;;;;;8.03;7.27;;;;;;;21.83;72.92;96431.91;5076773;28;20496;-61
2021/09/04 09:16:16;;;;;;;7.33;6.63;;;;;;;21.93;72.27;96428.25;5076942;28;20716;-61
2021/09/04 09:18:42;;;;;;;7.20;6.50;;;;;;;21.97;72.27;96423.91;5068214;28;20418;-66
2021/09/04 09:21:07;;;;;;;6.10;5.53;;;;;;;22.07;71.49;96429.84;5056703;28;20766;-66
2021/09/04 09:23:33;;;;;;;6.27;5.67;;;;;;;22.14;70.60;96432.94;5055192;28;20168;-61
2021/09/04 09:26:07;;;;;;;5.90;5.40;;;;;;;22.22;69.81;96442.16;5056634;28;20227;-61
2021/09/04 09:28:32;;;;;;;6.23;5.63;;;;;;;22.30;69.97;96441.50;5055402;28;20272;-61
2021/09/04 09:31:00;;;;;;;5.93;5.43;;;;;;;22.39;69.85;96440.47;5076211;28;20810;-61
2021/09/04 09:33:27;;;;;;;5.70;5.23;;;;;;;22.45;68.07;96433.94;5068812;28;20237;-61
2021/09/04 09:35:55;;;;;;;5.87;5.37;;;;;;;22.50;66.94;96433.81;5056715;28;20986;-66
2021/09/04 09:38:23;;;;;;;6.63;5.67;;;;;;;22.61;67.80;96428.31;5061859;28;20423;-61
2021/09/04 09:40:55;;;;;;;6.10;5.40;;;;;;;22.70;66.85;96423.81;5056941;28;20832;-66
2021/09/04 09:43:25;;;;;;;6.40;5.90;;;;;;;22.78;66.52;96425.78;5056304;28;20495;-67
2021/09/04 09:45:56;;;;;;;4.97;4.57;;;;;;;22.87;65.83;96424.78;5056630;28;20434;-62
2021/09/04 09:48:23;;;;;;;5.63;5.13;;;;;;;22.93;63.64;96418.22;5056304;28;20454;-69
2021/09/04 09:50:50;;;;;;;6.00;5.50;;;;;;;23.09;63.20;96419.44;5056348;28;20410;-67
2021/09/04 09:53:17;;;;;;;6.23;5.70;;;;;;;23.21;64.73;96425.06;5056250;28;20461;-70
2021/09/04 09:55:45;;;;;;;5.87;5.27;;;;;;;23.35;64.67;96427.72;5056253;28;20437;-61
2021/09/04 09:58:11;;;;;;;5.70;5.20;;;;;;;23.44;63.85;96417.84;5056338;28;20410;-68
2021/09/04 10:00:39;;;;;;;5.70;5.10;;;;;;;23.48;62.18;96419.59;5056302;28;20452;-68
2021/09/04 10:03:06;;;;;;;4.90;4.50;;;;;;;23.51;57.47;96414.72;5055891;28;20773;-61
2021/09/04 10:05:33;;;;;;;5.60;4.50;;;;;;;23.65;57.70;96420.81;5056051;28;20461;-62
2021/09/04 10:07:58;;;;;;;4.47;4.10;;;;;;;23.73;59.46;96406.66;5068491;28;20456;-60
2021/09/04 10:10:27;;;;;;;4.73;4.17;;;;;;;23.88;60.20;96406.25;5065051;28;20911;-68
2021/09/04 10:12:54;;;;;;;4.70;4.30;;;;;;;23.96;60.81;96406.28;5074521;28;20178;-59
2021/09/04 10:15:22;;;;;;;5.00;4.50;;;;;;;24.01;57.64;96402.69;5075854;28;20433;-64
2021/09/04 10:17:51;;;;;;;4.90;4.50;;;;;;;24.08;57.44;96406.53;5063844;28;20928;-69
2021/09/04 10:20:16;;;;;;;5.47;4.67;;;;;;;24.17;55.06;96411.91;5065082;28;20501;-71
2021/09/04 10:22:43;;;;;;;4.83;4.40;;;;;;;24.30;56.13;96408.34;5055350;28;20477;-60
2021/09/04 10:25:14;;;;;;;5.10;4.70;;;;;;;24.29;56.81;96399.50;5072975;28;20199;-59
2021/09/04 10:27:45;;;;;;;5.03;4.50;;;;;;;24.35;56.14;96406.31;5063392;28;20417;-67
2021/09/04 10:30:35;;;;;;;5.40;5.00;;;;;;;24.39;54.86;96401.91;5074304;28;20424;-61
2021/09/04 10:33:09;;;;;;;5.33;4.83;;;;;;;24.30;50.44;96398.41;5063432;28;20429;-67
2021/09/04 10:35:53;;;;;;;4.60;4.20;;;;;;;24.39;53.07;96398.41;5063382;28;20515;-67
2021/09/04 10:38:18;;;;;;;4.63;4.10;;;;;;;24.51;55.60;96401.31;5068737;28;20444;-61
2021/09/04 10:40:46;;;;;;;5.07;4.60;;;;;;;24.56;54.03;96398.47;5066083;28;20459;-61
2021/09/04 10:43:13;;;;;;;4.97;4.47;;;;;;;24.68;54.89;96395.16;5062888;28;20646;-68
2021/09/04 10:45:39;;;;;;;5.10;4.53;;;;;;;24.76;54.08;96402.47;5063133;28;20502;-68
2021/09/04 10:48:20;;;;;;;5.90;4.40;;;;;;;24.76;51.08;96392.53;5064387;28;20867;-59
2021/09/04 10:51:08;;;;;;;4.40;3.90;;;;;;;24.92;52.63;96401.72;5063203;28;20232;-68
2021/09/04 10:53:51;;;;;;;5.80;4.00;;;;;;;25.05;53.89;96394.59;5062645;28;20818;-59
2021/09/04 10:56:21;;;;;;;4.57;4.17;;;;;;;25.19;54.25;96392.53;5062730;28;20453;-59
2021/09/04 10:58:47;;;;;;;4.70;4.20;;;;;;;25.22;53.97;96389.22;5063026;28;20923;-59
2021/09/04 11:01:18;;;;;;;5.10;4.60;;;;;;;25.19;52.19;96379.06;5062603;28;20428;-59
2021/09/04 11:03:51;;;;;;;4.43;4.00;;;;;;;25.25;51.70;96383.19;5062487;28;20501;-68
2021/09/04 11:06:21;;;;;;;4.70;4.30;;;;;;;25.35;52.04;96374.78;5063530;28;20441;-69
2021/09/04 11:08:47;;;;;;;4.20;3.90;;;;;;;25.35;52.02;96382.84;5066742;28;20452;-58
2021/09/04 11:11:17;;;;;;;4.73;4.33;;;;;;;25.41;51.94;96382.41;5064734;28;20430;-59
2021/09/04 11:13:43;;;;;;;4.90;4.40;;;;;;;25.48;51.65;96376.53;5061659;28;20175;-59
2021/09/04 11:16:35;;;;;;;4.60;4.20;;;;;;;25.53;51.84;96375.59;5064626;28;20449;-59
2021/09/04 11:19:08;;;;;;;4.90;4.50;;;;;;;25.56;49.75;96378.44;5062491;28;20426;-67
2021/09/04 11:21:46;;;;;;;4.57;4.17;;;;;;;25.61;47.05;96383.63;5074082;28;20417;-61
2021/09/04 11:24:16;;;;;;;4.50;4.20;;;;;;;25.64;47.19;96382.19;5065911;28;20786;-58
2021/09/04 11:26:59;;;;;;;4.90;4.50;;;;;;;25.80;49.74;96378.66;5054479;28;20489;-59
2021/09/04 11:29:25;;;;;;;5.03;4.63;;;;;;;25.86;50.83;96376.56;5060885;28;20449;-58